Time;durP1;ratioP1;P1;durP2;ratioP2;P2;SDS_P1;SDS_P2;PMS_P1;PMS_P2;Temp;Humidity;BMP_temperature;BMP_pressure;BME280_temperature;BME280_humidity;BME280_pressure;Samples;Min_cycle;Max_cycle;Signal;HPM_P1;HPM_P2
2022/02/01 00:02:35;;;;;;;2.97;2.20;;;;;;;2.90;100.00;152109.75;5071567;28;20471;-79
2022/02/01 00:05:18;;;;;;;4.20;2.03;;;;;;;2.91;100.00;152113.56;5069302;28;20543;-79
2022/02/01 00:08:04;;;;;;;4.10;2.20;;;;;;;2.90;100.00;152109.75;5066980;28;20446;-80
2022/02/01 00:10:48;;;;;;;3.07;1.80;;;;;;;2.90;100.00;152111.03;5069269;28;20449;-79
2022/02/01 00:13:35;;;;;;;2.07;1.57;;;;;;;2.91;100.00;152112.34;5056742;28;20912;-79
2022/02/01 00:16:45;;;;;;;2.67;1.83;;;;;;;2.92;100.00;152114.88;5068450;28;20471;-79
2022/02/01 00:34:13;;;;;;;2.37;1.67;;;;;;;2.84;100.00;152095.59;5031624;28;20460;-79
2022/02/01 00:36:52;;;;;;;2.77;1.63;;;;;;;2.83;100.00;152091.75;5049105;28;20448;-79
2022/02/01 00:39:41;;;;;;;1.67;1.47;;;;;;;2.83;100.00;152091.75;5031708;28;20506;-78
2022/02/01 00:42:16;;;;;;;2.27;1.40;;;;;;;2.84;100.00;152094.28;5049022;28;20501;-79
2022/02/01 00:44:52;;;;;;;3.20;1.80;;;;;;;2.87;100.00;152102.00;5048691;28;20454;-80
2022/02/01 00:47:27;;;;;;;2.70;1.70;;;;;;;2.88;100.00;152105.91;5026929;28;20456;-80
2022/02/01 00:50:04;;;;;;;2.40;1.47;;;;;;;2.90;100.00;152109.75;5051100;28;20448;-79
2022/02/01 00:52:40;;;;;;;3.27;1.40;;;;;;;2.91;100.00;152112.34;5034387;28;20496;-79
2022/02/01 00:55:17;;;;;;;1.90;1.70;;;;;;;2.88;100.00;152104.59;5034356;28;20535;-80
2022/02/01 00:57:53;;;;;;;1.83;1.47;;;;;;;2.87;100.00;152102.00;5047511;28;20804;-80
2022/02/01 01:00:28;;;;;;;2.10;1.53;;;;;;;2.81;100.00;152086.56;5031735;28;20934;-80
2022/02/01 01:03:04;;;;;;;2.70;1.73;;;;;;;2.82;100.00;152089.16;5048741;28;20483;-80
2022/02/01 01:05:40;;;;;;;3.37;1.57;;;;;;;2.77;100.00;152076.28;5031021;28;20450;-80
2022/02/01 01:08:16;;;;;;;1.93;1.20;;;;;;;2.71;100.00;152060.84;5049185;28;20446;-80
2022/02/01 01:10:53;;;;;;;3.70;1.30;;;;;;;2.68;100.00;152053.13;5030261;28;20547;-80
2022/02/01 01:14:09;;;;;;;2.10;1.20;;;;;;;2.63;100.00;152040.25;5049248;28;20451;-80
2022/02/01 01:17:11;;;;;;;4.33;2.03;;;;;;;2.68;100.00;152054.41;5048287;28;20488;-80
2022/02/01 01:46:10;;;;;;;9.97;2.50;;;;;;;2.67;100.00;152051.88;5080448;28;20563;-80
2022/02/01 01:54:33;;;;;;;5.50;2.07;;;;;;;2.71;100.00;152062.16;5080838;28;20442;-79
2022/02/01 01:57:08;;;;;;;2.83;1.60;;;;;;;2.71;100.00;152060.84;5080122;28;20435;-79
2022/02/01 01:59:44;;;;;;;5.10;2.13;;;;;;;2.69;100.00;152057.00;5065290;28;20454;-79
2022/02/01 02:02:21;;;;;;;7.73;2.43;;;;;;;2.75;100.00;152071.16;5086896;28;20543;-80
2022/02/01 02:04:57;;;;;;;3.43;1.80;;;;;;;2.71;100.00;152062.16;5083254;28;20444;-80
2022/02/01 02:07:33;;;;;;;2.50;1.50;;;;;;;2.71;100.00;152060.84;5064656;28;20461;-80
2022/02/01 02:10:09;;;;;;;3.70;2.37;;;;;;;2.68;100.00;152053.13;5077077;28;20908;-79
2022/02/01 02:12:56;;;;;;;4.47;2.00;;;;;;;2.67;100.00;152050.56;5068609;28;20446;-80
2022/02/01 02:15:38;;;;;;;3.67;1.73;;;;;;;2.67;100.00;152051.88;5083002;28;20817;-79
2022/02/01 02:18:19;;;;;;;3.80;2.30;;;;;;;2.66;100.00;152048.00;5082669;28;20441;-80
2022/02/01 02:20:56;;;;;;;5.43;2.40;;;;;;;2.66;100.00;152048.00;5066736;28;20454;-80
2022/02/01 02:23:32;;;;;;;4.07;2.60;;;;;;;2.63;100.00;152040.25;5082661;28;20548;-80
2022/02/01 02:26:12;;;;;;;5.33;2.23;;;;;;;2.65;100.00;152046.69;5081312;28;20590;-80
2022/02/01 02:28:48;;;;;;;3.63;2.20;;;;;;;2.67;100.00;152050.56;5072857;28;20466;-79
2022/02/01 02:31:24;;;;;;;5.60;2.00;;;;;;;2.65;100.00;152046.69;5068188;28;21019;-80
2022/02/01 02:34:05;;;;;;;3.30;2.20;;;;;;;2.65;100.00;152045.44;5082990;28;20533;-80
2022/02/01 02:36:47;;;;;;;3.50;2.30;;;;;;;2.63;100.00;152040.25;5065654;28;20450;-80
2022/02/01 02:39:29;;;;;;;4.50;2.20;;;;;;;2.60;100.00;152032.53;5064456;28;20474;-80
2022/02/01 02:42:11;;;;;;;3.53;2.00;;;;;;;2.56;100.00;152023.56;5083046;28;20477;-80
2022/02/01 02:45:05;;;;;;;3.20;1.63;;;;;;;2.59;100.00;152031.28;5078317;28;20442;-80
2022/02/01 02:47:41;;;;;;;4.40;2.20;;;;;;;2.58;100.00;152027.41;5074958;28;20447;-80
2022/02/01 02:50:16;;;;;;;8.27;2.47;;;;;;;2.51;100.00;152009.41;5073888;28;20959;-80
2022/02/01 02:52:53;;;;;;;7.90;3.00;;;;;;;2.52;100.00;152011.97;5059528;28;20428;-80
2022/02/01 02:55:31;;;;;;;5.07;2.50;;;;;;;2.51;100.00;152009.41;5078988;28;20475;-80
2022/02/01 02:58:07;;;;;;;7.30;2.20;;;;;;;2.54;100.00;152018.44;5072463;28;20450;-80
2022/02/01 03:00:43;;;;;;;3.20;1.90;;;;;;;2.55;100.00;152019.69;5053639;28;20438;-80
2022/02/01 03:03:18;;;;;;;2.73;1.90;;;;;;;2.55;100.00;152019.69;5067368;28;20499;-80
2022/02/01 03:05:54;;;;;;;8.30;2.10;;;;;;;2.50;100.00;152008.13;5061622;28;20446;-80
2022/02/01 03:08:31;;;;;;;5.37;2.30;;;;;;;2.54;100.00;152017.16;5080891;28;20843;-80
2022/02/01 03:11:11;;;;;;;4.23;2.33;;;;;;;2.52;100.00;152011.97;5064503;28;20456;-80
2022/02/01 03:13:52;;;;;;;7.33;3.73;;;;;;;2.52;100.00;152011.97;5084317;28;20440;-80
2022/02/01 03:22:17;;;;;;;5.07;1.87;;;;;;;2.51;100.00;152010.72;5095400;28;20506;-80
2022/02/01 03:24:59;;;;;;;5.63;2.23;;;;;;;2.51;100.00;152009.41;5076923;28;20556;-79
2022/02/01 03:27:34;;;;;;;4.53;2.37;;;;;;;2.42;100.00;151987.53;5081867;28;20438;-79
2022/02/01 03:30:11;;;;;;;4.60;1.90;;;;;;;2.44;100.00;151992.69;5073829;28;20508;-79
2022/02/01 03:32:46;;;;;;;5.80;2.10;;;;;;;2.43;100.00;151991.44;5064854;28;20676;-79
2022/02/01 03:35:22;;;;;;;7.27;3.00;;;;;;;2.47;100.00;152001.69;5084407;28;20449;-79
2022/02/01 03:37:58;;;;;;;10.70;2.60;;;;;;;2.46;100.00;151999.09;5098720;28;20450;-80
2022/02/01 03:40:35;;;;;;;4.57;1.93;;;;;;;2.46;100.00;151997.84;5070555;28;20509;-79
2022/02/01 03:43:10;;;;;;;6.97;2.50;;;;;;;2.39;100.00;151979.81;5063079;28;20546;-79
2022/02/01 03:45:46;;;;;;;8.07;2.63;;;;;;;2.37;100.00;151974.69;5077722;28;20818;-79
2022/02/01 03:48:22;;;;;;;13.53;3.40;;;;;;;2.37;100.00;151974.69;5061096;28;20458;-79
2022/02/01 03:50:57;;;;;;;4.67;2.00;;;;;;;2.38;100.00;151978.53;5076876;28;20942;-80
2022/02/01 03:53:33;;;;;;;5.40;2.03;;;;;;;2.41;100.00;151986.25;5080629;28;20453;-79
2022/02/01 03:56:10;;;;;;;4.97;2.40;;;;;;;2.38;100.00;151977.28;5075421;28;20941;-79
2022/02/01 03:58:45;;;;;;;7.13;1.90;;;;;;;2.39;100.00;151979.81;5077032;28;20820;-78
2022/02/01 04:01:21;;;;;;;5.67;2.53;;;;;;;2.43;100.00;151991.44;5080927;28;20450;-79
2022/02/01 04:03:57;;;;;;;5.17;2.50;;;;;;;2.39;100.00;151981.13;5078278;28;20477;-79
2022/02/01 04:06:32;;;;;;;6.60;2.40;;;;;;;2.45;100.00;151996.56;5081680;28;20449;-79
2022/02/01 04:09:08;;;;;;;3.47;2.47;;;;;;;2.46;100.00;151999.09;5059894;28;20477;-78
2022/02/01 04:11:45;;;;;;;8.53;2.10;;;;;;;2.50;100.00;152006.84;5078791;28;20465;-79
2022/02/01 04:14:24;;;;;;;5.73;2.37;;;;;;;2.41;100.00;151986.25;5065174;28;20451;-79
2022/02/01 04:17:02;;;;;;;3.40;1.63;;;;;;;2.45;100.00;151996.56;5056656;28;20455;-79
2022/02/01 04:19:38;;;;;;;3.60;1.87;;;;;;;2.40;100.00;151983.72;5082249;28;20442;-79
2022/02/01 04:22:15;;;;;;;6.97;1.97;;;;;;;2.37;100.00;151976.00;5065690;28;20446;-78
2022/02/01 04:24:50;;;;;;;6.23;2.20;;;;;;;2.41;100.00;151984.97;5082859;28;20467;-79
2022/02/01 04:27:31;;;;;;;5.90;2.10;;;;;;;2.38;100.00;151978.53;5064364;28;20445;-78
2022/02/01 04:30:10;;;;;;;3.47;2.03;;;;;;;2.38;100.00;151978.53;5077412;28;20478;-78
2022/02/01 04:32:47;;;;;;;10.90;2.50;;;;;;;2.39;100.00;151981.13;5091941;28;20429;-79
2022/02/01 04:35:24;;;;;;;8.30;2.00;;;;;;;2.41;100.00;151984.97;5093448;28;20466;-79
2022/02/01 04:37:59;;;;;;;4.43;2.00;;;;;;;2.41;100.00;151986.25;5079185;28;20453;-79
2022/02/01 04:40:35;;;;;;;6.83;1.90;;;;;;;2.33;100.00;151965.66;5076442;28;20440;-79
2022/02/01 04:43:12;;;;;;;5.10;2.10;;;;;;;2.28;100.00;151951.53;5076087;28;20456;-79
2022/02/01 04:45:48;;;;;;;2.97;1.70;;;;;;;2.32;100.00;151961.84;5065578;28;20454;-79
2022/02/01 04:48:23;;;;;;;9.30;1.93;;;;;;;2.36;100.00;151973.41;5097681;28;20459;-79
2022/02/01 04:50:58;;;;;;;3.67;1.73;;;;;;;2.32;100.00;151963.13;5065137;28;20842;-79
2022/02/01 04:53:34;;;;;;;11.00;2.47;;;;;;;2.25;100.00;151945.09;5082079;28;21012;-80
2022/02/01 04:56:10;;;;;;;10.43;2.13;;;;;;;2.30;100.00;151956.72;5058004;28;20443;-81
2022/02/01 04:58:47;;;;;;;4.37;1.80;;;;;;;2.32;100.00;151963.13;5081061;28;20485;-81
2022/02/01 05:01:31;;;;;;;8.00;1.83;;;;;;;2.33;100.00;151964.44;5079754;28;20444;-80
2022/02/01 05:04:07;;;;;;;4.47;1.90;;;;;;;2.27;100.00;151948.97;5085495;28;20481;-80
2022/02/01 05:06:43;;;;;;;7.63;2.70;;;;;;;2.27;100.00;151950.28;5081592;28;20919;-80
2022/02/01 05:09:18;;;;;;;3.10;1.27;;;;;;;2.27;100.00;151948.97;5099125;28;20485;-80
2022/02/01 05:11:55;;;;;;;6.90;2.37;;;;;;;2.26;100.00;151947.69;5081212;28;20545;-80
2022/02/01 05:14:32;;;;;;;4.93;1.80;;;;;;;2.29;100.00;151955.41;5079874;28;20441;-80
2022/02/01 05:17:08;;;;;;;6.30;2.40;;;;;;;2.28;100.00;151952.81;5078547;28;20450;-80
2022/02/01 05:19:54;;;;;;;4.20;2.30;;;;;;;2.27;100.00;151950.28;5055781;28;20453;-80
2022/02/01 05:22:32;;;;;;;4.47;2.10;;;;;;;2.25;100.00;151945.09;5080534;28;20446;-80
2022/02/01 05:25:26;;;;;;;10.00;1.90;;;;;;;2.25;100.00;151943.84;5084127;28;20937;-80
2022/02/01 05:28:02;;;;;;;9.67;2.10;;;;;;;2.22;100.00;151937.44;5074597;28;20448;-80
2022/02/01 05:30:39;;;;;;;5.87;1.53;;;;;;;2.24;100.00;151942.56;5065194;28;20469;-79
2022/02/01 05:33:15;;;;;;;7.73;1.90;;;;;;;2.21;100.00;151934.84;5083148;28;20480;-80
2022/02/01 05:35:50;;;;;;;8.43;2.17;;;;;;;2.18;100.00;151927.13;5064659;28;20485;-80
2022/02/01 05:38:26;;;;;;;4.00;1.67;;;;;;;2.19;100.00;151929.72;5069050;28;20486;-80
2022/02/01 05:41:01;;;;;;;4.30;1.77;;;;;;;2.20;100.00;151930.94;5068235;28;20936;-80
2022/02/01 05:43:42;;;;;;;9.40;2.30;;;;;;;2.15;100.00;151919.41;5083618;28;20471;-80
2022/02/01 05:46:19;;;;;;;3.97;2.13;;;;;;;2.16;100.00;151921.97;5073889;28;20465;-80
2022/02/01 05:48:55;;;;;;;10.83;2.00;;;;;;;2.13;100.00;151914.25;5060117;28;20967;-80
2022/02/01 05:51:31;;;;;;;6.03;1.90;;;;;;;2.08;100.00;151900.13;5080170;28;20434;-79
2022/02/01 05:54:06;;;;;;;9.50;2.30;;;;;;;2.04;100.00;151889.84;5093936;28;20510;-79
2022/02/01 05:56:42;;;;;;;7.10;2.60;;;;;;;2.05;100.00;151893.69;5079408;28;20451;-80
2022/02/01 05:59:18;;;;;;;3.33;1.83;;;;;;;2.08;100.00;151901.41;5074818;28;20472;-80
2022/02/01 06:01:56;;;;;;;10.70;2.23;;;;;;;2.07;99.97;151898.81;5083606;28;20449;-80
2022/02/01 06:04:32;;;;;;;5.67;1.90;;;;;;;2.08;100.00;151900.13;5075772;28;20462;-80
2022/02/01 06:07:07;;;;;;;3.20;1.70;;;;;;;2.06;100.00;151896.28;5059128;28;20782;-79
2022/02/01 06:09:43;;;;;;;4.40;1.63;;;;;;;2.02;100.00;151885.97;5062916;28;20459;-79
2022/02/01 06:12:19;;;;;;;8.60;2.23;;;;;;;2.05;100.00;151893.69;5085529;28;20452;-80
2022/02/01 06:14:54;;;;;;;9.50;2.30;;;;;;;2.02;100.00;151885.97;5083887;28;20853;-80
2022/02/01 06:17:31;;;;;;;6.77;1.93;;;;;;;2.03;100.00;151888.56;5069374;28;20448;-80
2022/02/01 06:20:12;;;;;;;6.20;2.40;;;;;;;1.96;100.00;151870.53;5062647;28;20503;-81
2022/02/01 06:22:47;;;;;;;11.57;2.23;;;;;;;1.99;100.00;151878.25;5065449;28;20852;-79
2022/02/01 06:25:42;;;;;;;4.33;1.70;;;;;;;1.93;100.00;151862.88;5080132;28;20564;-79
2022/02/01 06:28:19;;;;;;;4.50;2.30;;;;;;;1.94;100.00;151865.41;5060739;28;20450;-79
2022/02/01 06:30:56;;;;;;;4.40;1.87;;;;;;;1.93;100.00;151861.56;5085839;28;20445;-80
2022/02/01 06:33:33;;;;;;;5.80;2.27;;;;;;;1.96;100.00;151869.28;5065980;28;20542;-79
2022/02/01 06:36:09;;;;;;;3.80;1.60;;;;;;;1.99;100.00;151878.25;5088081;28;20527;-80
2022/02/01 06:38:44;;;;;;;6.57;1.83;;;;;;;2.00;100.00;151880.84;5079855;28;20444;-79
2022/02/01 06:41:20;;;;;;;3.57;2.00;;;;;;;2.00;100.00;151880.84;5064369;28;20798;-80
2022/02/01 06:44:02;;;;;;;9.13;2.30;;;;;;;2.00;100.00;151879.56;5085479;28;20458;-79
2022/02/01 06:46:37;;;;;;;4.03;1.80;;;;;;;1.98;100.00;151875.72;5060340;28;20459;-80
2022/02/01 06:49:14;;;;;;;7.63;2.10;;;;;;;1.96;100.00;151870.53;5082757;28;20457;-79
2022/02/01 06:51:50;;;;;;;6.93;3.13;;;;;;;2.00;100.00;151880.84;5066028;28;20456;-80
2022/02/01 06:54:26;;;;;;;12.67;3.13;;;;;;;2.02;100.00;151885.97;5066520;28;20446;-79
2022/02/01 06:57:01;;;;;;;3.43;2.13;;;;;;;2.03;99.56;151888.56;5065205;28;20458;-79
2022/02/01 06:59:37;;;;;;;8.17;2.30;;;;;;;2.03;99.42;151888.56;5065080;28;20462;-80
2022/02/01 07:02:13;;;;;;;5.13;2.03;;;;;;;2.03;100.00;151888.56;5076880;28;20449;-79
2022/02/01 07:04:50;;;;;;;5.37;1.67;;;;;;;2.03;98.98;151888.56;5089853;28;20576;-79
2022/02/01 07:07:25;;;;;;;8.47;2.00;;;;;;;2.00;98.97;151880.84;5071053;28;20449;-79
2022/02/01 07:10:00;;;;;;;6.57;1.93;;;;;;;1.99;98.43;151878.25;5064417;28;20457;-79
2022/02/01 07:12:36;;;;;;;3.40;2.10;;;;;;;2.04;98.68;151889.84;5057247;28;20554;-78
2022/02/01 07:15:12;;;;;;;5.43;2.20;;;;;;;2.00;98.63;151879.56;5076768;28;20431;-79
2022/02/01 07:17:48;;;;;;;2.77;1.80;;;;;;;2.00;99.57;151879.56;5062703;28;20458;-79
2022/02/01 07:20:26;;;;;;;6.47;2.20;;;;;;;1.93;99.08;151862.88;5082141;28;20972;-78
2022/02/01 07:23:01;;;;;;;4.30;1.83;;;;;;;1.90;97.66;151855.16;5078528;28;20544;-79
2022/02/01 07:25:45;;;;;;;5.07;1.87;;;;;;;1.93;98.79;151862.88;5071022;28;20529;-79
2022/02/01 07:28:22;;;;;;;6.87;1.90;;;;;;;1.90;98.73;151855.16;5062436;28;20448;-78
2022/02/01 07:30:59;;;;;;;3.80;2.00;;;;;;;1.92;99.30;151860.28;5066614;28;20544;-80
2022/02/01 07:33:37;;;;;;;4.13;1.90;;;;;;;1.95;100.00;151868.00;5079764;28;20484;-79
2022/02/01 07:36:16;;;;;;;6.23;1.83;;;;;;;1.97;100.00;151871.81;5083278;28;20441;-79
2022/02/01 07:38:52;;;;;;;8.10;2.40;;;;;;;1.90;97.68;151855.16;5067665;28;20448;-79
2022/02/01 07:41:28;;;;;;;7.33;2.80;;;;;;;1.92;97.70;151860.28;5084162;28;20442;-79
2022/02/01 07:44:04;;;;;;;8.93;2.23;;;;;;;1.99;97.91;151876.97;5064984;28;20473;-79
2022/02/01 07:46:41;;;;;;;8.43;2.73;;;;;;;1.98;99.86;151874.41;5063285;28;20898;-79
2022/02/01 07:49:21;;;;;;;2.90;1.50;;;;;;;2.02;100.00;151885.97;5080124;28;20453;-79
2022/02/01 07:51:59;;;;;;;7.83;2.80;;;;;;;2.05;96.61;151893.69;5063139;28;20474;-79
2022/02/01 07:54:35;;;;;;;4.50;1.83;;;;;;;2.10;97.51;151905.25;5079893;28;20459;-79
2022/02/01 07:57:10;;;;;;;7.80;2.10;;;;;;;2.03;96.47;151888.56;5079592;28;20442;-79
2022/02/01 07:59:46;;;;;;;6.23;2.37;;;;;;;2.06;97.52;151895.00;5089381;28;20455;-79
2022/02/01 08:02:24;;;;;;;13.70;2.80;;;;;;;2.06;96.59;151896.28;5072765;28;20816;-79
2022/02/01 08:05:00;;;;;;;4.13;2.17;;;;;;;2.08;96.91;151901.41;5074141;28;20461;-79
2022/02/01 08:07:37;;;;;;;9.07;2.63;;;;;;;2.10;96.51;151906.53;5064404;28;20795;-79
2022/02/01 08:10:15;;;;;;;4.53;2.03;;;;;;;2.10;96.43;151906.53;5067643;28;20815;-79
2022/02/01 08:21:43;;;;;;;2.90;1.80;;;;;;;2.24;97.65;151941.25;5080360;28;20788;-80
2022/02/01 08:24:20;;;;;;;7.30;2.30;;;;;;;2.23;96.81;151939.97;5100198;28;20466;-79
2022/02/01 08:26:56;;;;;;;4.80;2.20;;;;;;;2.28;95.44;151951.53;5075546;28;20470;-79
2022/02/01 08:29:31;;;;;;;3.53;2.27;;;;;;;2.28;95.09;151952.81;5077375;28;20484;-79
2022/02/01 08:32:08;;;;;;;2.93;1.73;;;;;;;2.31;94.08;151959.25;5078301;28;20547;-79
2022/02/01 08:34:43;;;;;;;5.67;1.97;;;;;;;2.41;97.07;151984.97;5075522;28;20859;-79
2022/02/01 08:37:20;;;;;;;6.27;2.40;;;;;;;2.38;96.05;151977.28;5055486;28;20483;-79
2022/02/01 08:39:58;;;;;;;4.20;1.83;;;;;;;2.38;96.58;151978.53;5072210;28;20549;-78
2022/02/01 08:42:33;;;;;;;5.40;2.03;;;;;;;2.43;95.89;151990.13;5077761;28;20440;-79
2022/02/01 08:45:10;;;;;;;5.47;2.87;;;;;;;2.49;95.09;152004.28;5054529;28;20984;-79
2022/02/01 08:47:52;;;;;;;4.10;3.00;;;;;;;2.51;96.69;152010.72;5078708;28;20439;-79
2022/02/01 08:50:31;;;;;;;9.67;3.50;;;;;;;2.52;95.20;152011.97;5082596;28;20444;-79
2022/02/01 08:53:14;;;;;;;6.40;2.50;;;;;;;2.52;95.08;152011.97;5059818;28;20431;-79
2022/02/01 08:56:03;;;;;;;8.43;2.70;;;;;;;2.57;97.56;152026.13;5080499;28;20434;-78
2022/02/01 08:58:39;;;;;;;4.80;2.03;;;;;;;2.56;95.22;152022.28;5060412;28;20492;-79
2022/02/01 09:01:14;;;;;;;3.53;2.30;;;;;;;2.64;97.50;152042.84;5055893;28;20454;-78
2022/02/01 09:03:50;;;;;;;4.70;2.47;;;;;;;2.65;96.79;152046.69;5082431;28;20449;-80
2022/02/01 09:06:25;;;;;;;4.53;2.43;;;;;;;2.68;95.52;152053.13;5066073;28;20790;-79
2022/02/01 09:09:01;;;;;;;7.70;2.87;;;;;;;2.73;95.01;152067.28;5095198;28;20443;-79
2022/02/01 09:11:38;;;;;;;3.53;2.30;;;;;;;2.77;93.96;152076.28;5075078;28;20440;-79
2022/02/01 09:14:13;;;;;;;6.67;2.43;;;;;;;2.81;93.50;152086.56;5080801;28;20446;-79
2022/02/01 09:16:49;;;;;;;6.00;2.60;;;;;;;2.82;95.08;152090.44;5075132;28;20443;-79
2022/02/01 09:19:24;;;;;;;3.13;2.13;;;;;;;2.89;95.78;152107.16;5079610;28;20460;-79
2022/02/01 09:22:01;;;;;;;4.40;1.90;;;;;;;2.96;95.61;152125.19;5080689;28;20452;-79
2022/02/01 09:24:37;;;;;;;5.07;2.87;;;;;;;3.01;95.66;152138.06;5079594;28;20468;-79
2022/02/01 09:27:14;;;;;;;3.80;2.10;;;;;;;3.04;95.19;152147.03;5080980;28;20440;-79
2022/02/01 09:29:49;;;;;;;4.70;2.67;;;;;;;3.13;95.55;152168.91;5077652;28;20475;-79
2022/02/01 09:32:27;;;;;;;5.30;2.60;;;;;;;3.17;95.57;152179.22;5069124;28;20444;-79
2022/02/01 09:35:02;;;;;;;5.70;2.83;;;;;;;3.10;94.44;152161.19;5079756;28;20451;-79
2022/02/01 09:37:39;;;;;;;5.43;2.63;;;;;;;3.14;96.34;152171.50;5065639;28;20449;-79
2022/02/01 09:40:17;;;;;;;2.77;2.07;;;;;;;3.15;94.24;152174.03;5076791;28;20443;-79
2022/02/01 09:42:54;;;;;;;6.27;2.80;;;;;;;3.17;94.03;152179.22;5076576;28;20801;-79
2022/02/01 09:45:33;;;;;;;4.73;2.20;;;;;;;3.22;94.77;152192.09;5078960;28;20792;-79
2022/02/01 09:48:09;;;;;;;10.73;2.30;;;;;;;3.27;93.19;152203.66;5064516;28;20545;-79
2022/02/01 09:50:45;;;;;;;2.90;1.63;;;;;;;3.22;95.25;152192.09;5091257;28;20432;-79
2022/02/01 09:53:21;;;;;;;4.13;2.23;;;;;;;3.29;93.70;152210.09;5080633;28;20469;-79
2022/02/01 09:55:57;;;;;;;3.30;2.00;;;;;;;3.34;95.34;152222.97;5065712;28;20440;-79
2022/02/01 09:58:35;;;;;;;2.30;1.70;;;;;;;3.33;92.76;152219.13;5068920;28;20462;-79
2022/02/01 10:01:19;;;;;;;4.03;1.40;;;;;;;3.39;94.23;152235.81;5061183;28;20579;-79
2022/02/01 10:04:02;;;;;;;4.10;1.90;;;;;;;3.47;90.89;152255.13;5099570;28;20505;-79
2022/02/01 10:06:39;;;;;;;2.47;1.70;;;;;;;3.46;95.60;152253.88;5072561;28;20455;-79
2022/02/01 10:09:16;;;;;;;4.57;1.70;;;;;;;3.48;94.00;152259.00;5071136;28;20843;-79
2022/02/01 10:11:51;;;;;;;3.67;2.03;;;;;;;3.56;94.58;152279.63;5083204;28;20776;-80
2022/02/01 10:14:39;;;;;;;2.97;1.57;;;;;;;3.63;95.53;152296.31;5069204;28;20452;-79
2022/02/01 10:17:25;;;;;;;8.40;1.73;;;;;;;3.66;95.04;152305.34;5066123;28;20797;-79
2022/02/01 10:20:00;;;;;;;3.50;1.80;;;;;;;3.63;92.99;152297.63;5085377;28;20542;-80
2022/02/01 10:22:37;;;;;;;2.40;1.60;;;;;;;3.58;93.48;152283.47;5069290;28;20446;-79
2022/02/01 10:25:24;;;;;;;5.90;1.80;;;;;;;3.61;91.57;152291.19;5056731;28;20468;-79
2022/02/01 10:28:02;;;;;;;2.83;2.00;;;;;;;3.65;92.02;152302.75;5056172;28;20443;-79
2022/02/01 10:30:43;;;;;;;3.87;2.27;;;;;;;3.63;91.66;152297.63;5061887;28;20500;-79
2022/02/01 10:33:59;;;;;;;3.30;1.77;;;;;;;3.61;91.65;152291.19;5080379;28;20547;-80
2022/02/01 10:36:36;;;;;;;3.30;1.90;;;;;;;3.64;92.93;152300.22;5060070;28;20449;-79
2022/02/01 10:39:20;;;;;;;4.00;2.07;;;;;;;3.66;94.51;152304.06;5081245;28;20444;-79
2022/02/01 10:42:00;;;;;;;3.50;1.60;;;;;;;3.71;92.50;152316.91;5078573;28;20543;-79
2022/02/01 10:44:40;;;;;;;2.83;1.67;;;;;;;3.71;93.64;152315.69;5053657;28;20786;-79
2022/02/01 10:47:20;;;;;;;4.90;1.90;;;;;;;3.69;92.76;152313.09;5077506;28;20872;-79
2022/02/01 10:49:56;;;;;;;2.53;1.50;;;;;;;3.63;92.33;152297.63;5086056;28;20452;-79
2022/02/01 10:52:34;;;;;;;2.70;1.77;;;;;;;3.57;92.08;152282.16;5084701;28;21016;-79
2022/02/01 10:55:11;;;;;;;2.63;1.70;;;;;;;3.60;93.07;152289.88;5081327;28;20460;-79
2022/02/01 10:57:47;;;;;;;2.57;1.60;;;;;;;3.68;95.70;152309.19;5076528;28;20530;-79
2022/02/01 11:00:23;;;;;;;2.40;1.43;;;;;;;3.74;93.19;152323.34;5062491;28;20467;-80
2022/02/01 11:03:01;;;;;;;2.00;1.33;;;;;;;3.72;92.25;152318.22;5076224;28;20899;-80
2022/02/01 11:05:36;;;;;;;2.83;2.00;;;;;;;3.76;92.51;152328.53;5062513;28;20463;-79
2022/02/01 11:08:14;;;;;;;2.40;1.50;;;;;;;3.84;91.76;152350.41;5083421;28;20436;-80
2022/02/01 11:10:52;;;;;;;3.10;1.70;;;;;;;3.86;92.51;152354.28;5084690;28;20438;-80
2022/02/01 11:13:37;;;;;;;3.00;1.20;;;;;;;3.89;93.13;152362.00;5079340;28;20452;-79
2022/02/01 11:16:14;;;;;;;5.47;1.90;;;;;;;3.92;89.21;152371.00;5063215;28;20782;-79
2022/02/01 11:18:56;;;;;;;1.87;1.50;;;;;;;3.87;91.88;152356.81;5066554;28;20557;-79
2022/02/01 11:21:43;;;;;;;3.20;1.80;;;;;;;3.87;90.42;152358.13;5070405;28;21109;-79
2022/02/01 11:24:30;;;;;;;7.93;2.47;;;;;;;3.89;90.37;152363.25;5064254;28;20846;-79
2022/02/01 11:27:15;;;;;;;4.83;2.20;;;;;;;3.89;90.61;152362.00;5059391;28;20520;-80
2022/02/01 11:30:11;;;;;;;6.83;1.80;;;;;;;3.93;88.12;152372.28;5074467;28;20480;-79
2022/02/01 11:32:51;;;;;;;4.07;1.77;;;;;;;3.94;87.69;152374.88;5075991;28;20534;-78
2022/02/01 11:35:29;;;;;;;3.90;2.17;;;;;;;3.84;86.01;152349.16;5067126;28;20938;-80
2022/02/01 11:38:07;;;;;;;5.30;1.60;;;;;;;3.85;87.98;152351.69;5066586;28;20537;-80
2022/02/01 11:40:46;;;;;;;5.10;2.37;;;;;;;3.87;87.22;152356.81;5060384;28;20455;-79
2022/02/01 11:43:25;;;;;;;4.63;1.90;;;;;;;3.91;87.60;152367.16;5095412;28;20454;-79
2022/02/01 11:46:04;;;;;;;4.50;2.20;;;;;;;3.83;87.02;152346.56;5079885;28;20803;-79
2022/02/01 11:48:40;;;;;;;3.47;2.40;;;;;;;3.73;86.29;152320.81;5080023;28;20483;-80
2022/02/01 11:51:17;;;;;;;3.50;1.90;;;;;;;3.76;89.28;152328.53;5065929;28;20448;-80
2022/02/01 11:53:57;;;;;;;2.47;1.43;;;;;;;3.69;91.26;152313.09;5081679;28;20546;-79
2022/02/01 11:56:36;;;;;;;2.77;2.00;;;;;;;3.64;90.67;152300.22;5073726;28;20492;-78
2022/02/01 11:59:17;;;;;;;4.47;2.33;;;;;;;3.68;89.63;152309.19;5092955;28;20687;-80
2022/02/01 12:02:05;;;;;;;4.00;1.83;;;;;;;3.64;91.38;152300.22;5077980;28;20452;-79
2022/02/01 12:04:42;;;;;;;5.67;2.33;;;;;;;3.63;92.63;152296.31;5079511;28;20878;-79
2022/02/01 12:07:24;;;;;;;2.60;1.73;;;;;;;3.66;91.16;152305.34;5067179;28;20454;-78
2022/02/01 12:10:12;;;;;;;4.07;1.50;;;;;;;3.58;89.83;152284.75;5082360;28;20455;-79
2022/02/01 12:12:47;;;;;;;3.20;1.60;;;;;;;3.61;90.84;152291.19;5099671;28;20439;-79
2022/02/01 12:15:26;;;;;;;3.70;1.40;;;;;;;3.60;90.09;152288.66;5059098;28;20452;-79
2022/02/01 12:18:08;;;;;;;4.97;1.90;;;;;;;3.55;90.67;152277.03;5072696;28;20535;-79
2022/02/01 12:20:45;;;;;;;6.60;1.70;;;;;;;3.50;91.04;152264.16;5060383;28;20784;-79
2022/02/01 12:23:26;;;;;;;2.37;1.50;;;;;;;3.50;90.89;152264.16;5080853;28;20457;-78
2022/02/01 12:26:01;;;;;;;5.33;1.80;;;;;;;3.48;92.61;152257.72;5081938;28;20542;-80
2022/02/01 12:28:37;;;;;;;3.07;1.40;;;;;;;3.41;91.77;152239.72;5074889;28;20448;-79
2022/02/01 12:31:15;;;;;;;2.50;1.57;;;;;;;3.44;94.01;152248.69;5057169;28;20534;-80
2022/02/01 12:33:53;;;;;;;2.30;1.27;;;;;;;3.41;91.67;152241.00;5073919;28;20539;-79
2022/02/01 12:36:36;;;;;;;3.70;1.50;;;;;;;3.45;93.91;152250.00;5084808;28;20452;-79
2022/02/01 12:39:18;;;;;;;5.03;1.67;;;;;;;3.41;92.40;152241.00;5061843;28;20455;-79
2022/02/01 12:42:00;;;;;;;2.90;1.60;;;;;;;3.36;93.35;152228.09;5080686;28;20450;-79
2022/02/01 12:47:31;;;;;;;6.20;2.30;;;;;;;3.43;92.23;152246.16;5072178;28;20431;-79
2022/02/01 12:50:11;;;;;;;2.67;1.90;;;;;;;3.30;91.65;152211.41;5076363;28;20446;-79
2022/02/01 12:52:48;;;;;;;2.13;1.30;;;;;;;3.39;94.04;152235.81;5056953;28;20806;-79
2022/02/01 12:55:26;;;;;;;2.30;1.50;;;;;;;3.39;92.49;152234.59;5082932;28;20831;-79
2022/02/01 12:58:05;;;;;;;3.30;2.17;;;;;;;3.38;93.52;152232.00;5055195;28;20439;-79
2022/02/01 13:00:40;;;;;;;1.57;1.37;;;;;;;3.36;93.71;152228.09;5072434;28;20542;-79
2022/02/01 13:03:16;;;;;;;2.73;1.43;;;;;;;3.32;93.67;152217.81;5071495;28;20820;-79
2022/02/01 13:05:56;;;;;;;4.10;1.77;;;;;;;3.35;93.52;152225.56;5093563;28;20467;-79
2022/02/01 13:08:49;;;;;;;3.97;2.20;;;;;;;3.37;92.75;152229.41;5079996;28;20450;-79
2022/02/01 13:14:37;;;;;;;3.73;1.97;;;;;;;3.37;93.16;152230.69;5082103;28;20438;-79
2022/02/01 13:17:36;;;;;;;3.27;1.70;;;;;;;3.39;91.03;152235.81;5077186;28;20467;-79
2022/02/01 13:20:17;;;;;;;6.37;2.00;;;;;;;3.41;93.19;152241.00;5056228;28;20460;-79
2022/02/01 13:22:58;;;;;;;3.63;1.63;;;;;;;3.45;91.80;152251.28;5087310;28;20432;-79
2022/02/01 13:25:36;;;;;;;3.77;1.33;;;;;;;3.38;91.63;152233.28;5081044;28;20553;-79
2022/02/01 13:28:15;;;;;;;1.80;1.20;;;;;;;3.38;95.02;152233.28;5077537;28;20445;-79
2022/02/01 13:30:51;;;;;;;2.07;1.50;;;;;;;3.39;93.00;152235.81;5076005;28;20465;-79